createdAt,value
2019-05-13T00:00:17.525Z,4.01
2019-05-13T00:01:17.510Z,4.04
2019-05-13T00:02:17.498Z,4.04
2019-05-13T00:03:17.488Z,3.96
2019-05-13T00:04:17.539Z,4.04
2019-05-13T00:05:17.464Z,3.89
2019-05-13T00:06:17.452Z,3.75
2019-05-13T00:07:17.440Z,3.79
2019-05-13T00:08:17.434Z,3.70
2019-05-13T00:09:17.419Z,3.72
2019-05-13T00:10:17.471Z,3.64
2019-05-13T00:11:17.396Z,3.61
2019-05-13T00:12:17.383Z,3.64
2019-05-13T00:13:17.373Z,3.57
2019-05-13T00:14:17.359Z,3.60
2019-05-13T00:15:17.349Z,3.57
2019-05-13T00:16:17.406Z,3.58
2019-05-13T00:17:17.324Z,3.57
2019-05-13T00:18:17.314Z,3.57
2019-05-13T00:19:17.303Z,3.54
2019-05-13T00:20:17.303Z,3.52
2019-05-13T00:21:17.281Z,3.52
2019-05-13T00:22:17.333Z,3.42
2019-05-13T00:23:17.257Z,3.36
2019-05-13T00:24:17.245Z,3.23
2019-05-13T00:25:17.233Z,3.07
2019-05-13T00:26:17.224Z,2.97
2019-05-13T00:27:17.212Z,2.74
2019-05-13T00:28:17.262Z,2.69
2019-05-13T00:29:17.187Z,2.52
2019-05-13T00:30:17.176Z,2.51
2019-05-13T00:31:17.163Z,2.56
2019-05-13T00:32:17.151Z,2.51
2019-05-13T00:33:17.143Z,2.51
2019-05-13T00:34:17.196Z,2.58
2019-05-13T00:35:17.117Z,2.70
2019-05-13T00:36:17.105Z,2.71
2019-05-13T00:37:17.093Z,2.94
2019-05-13T00:38:17.082Z,3.03
2019-05-13T00:39:17.072Z,3.34
2019-05-13T00:40:17.131Z,3.42
2019-05-13T00:41:17.051Z,3.52
2019-05-13T00:42:17.039Z,3.54
2019-05-13T00:43:17.026Z,3.60
2019-05-13T00:44:17.012Z,3.58
2019-05-13T00:45:17.001Z,3.57
2019-05-13T00:46:17.055Z,3.60
2019-05-13T00:47:16.979Z,3.53
2019-05-13T00:48:16.965Z,3.47
2019-05-13T00:49:16.958Z,3.40
2019-05-13T00:50:16.944Z,3.42
2019-05-13T00:51:16.932Z,3.49
2019-05-13T00:52:16.987Z,3.39
2019-05-13T00:53:16.908Z,3.43
2019-05-13T00:54:16.896Z,3.28
2019-05-13T00:55:16.884Z,3.31
2019-05-13T00:56:16.875Z,3.31
2019-05-13T00:57:16.862Z,3.21
2019-05-13T00:58:16.917Z,3.28
2019-05-13T00:59:16.842Z,3.21
2019-05-13T01:00:16.831Z,3.18
2019-05-13T01:01:16.819Z,3.12
2019-05-13T01:02:16.807Z,3.07
2019-05-13T01:03:16.794Z,3.05
2019-05-13T01:04:16.851Z,3.18
2019-05-13T01:05:16.771Z,3.30
2019-05-13T01:06:16.760Z,3.21
2019-05-13T01:07:25.966Z,3.30
2019-05-13T01:08:17.735Z,3.40
2019-05-13T01:09:16.741Z,3.31
2019-05-13T01:10:16.775Z,3.18
2019-05-13T01:11:16.701Z,3.31
2019-05-13T01:12:16.690Z,3.25
2019-05-13T01:13:16.682Z,3.33
2019-05-13T01:14:16.668Z,3.31
2019-05-13T01:15:16.655Z,3.33
2019-05-13T01:16:16.710Z,3.39
2019-05-13T01:17:16.632Z,3.34
2019-05-13T01:18:16.620Z,3.28
2019-05-13T01:19:16.610Z,3.24
2019-05-13T01:20:16.598Z,3.31
2019-05-13T01:21:16.584Z,3.18
2019-05-13T01:22:16.636Z,3.23
2019-05-13T01:23:16.571Z,3.09
2019-05-13T01:24:16.551Z,3.06
2019-05-13T01:25:16.540Z,3.03
2019-05-13T01:26:16.529Z,2.94
2019-05-13T01:27:16.516Z,2.95
2019-05-13T01:28:16.574Z,2.94
2019-05-13T01:29:16.493Z,2.87
2019-05-13T01:30:16.481Z,3.02
2019-05-13T01:31:16.472Z,2.91
2019-05-13T01:32:16.460Z,2.98
2019-05-13T01:33:16.448Z,2.95
2019-05-13T01:34:16.498Z,2.88
2019-05-13T01:35:16.424Z,2.91
2019-05-13T01:36:16.414Z,3.09
2019-05-13T01:37:16.403Z,2.97
2019-05-13T01:38:16.391Z,3.10
2019-05-13T01:39:16.378Z,2.95
2019-05-13T01:40:16.435Z,3.05
2019-05-13T01:41:16.355Z,2.98
2019-05-13T01:42:16.343Z,2.97
2019-05-13T01:43:16.336Z,3.06
2019-05-13T01:44:16.320Z,3.05
2019-05-13T01:45:16.311Z,2.97
2019-05-13T01:46:16.525Z,2.88
2019-05-13T01:47:16.286Z,2.81
2019-05-13T01:48:16.278Z,2.88
2019-05-13T01:49:18.612Z,2.91
2019-05-13T01:50:16.254Z,2.85
2019-05-13T01:51:16.241Z,2.91
2019-05-13T01:52:16.293Z,2.92
2019-05-13T01:53:16.219Z,2.87
2019-05-13T01:54:16.208Z,2.91
2019-05-13T01:55:16.198Z,2.89
2019-05-13T01:56:16.185Z,2.84
2019-05-13T01:57:16.174Z,2.79
2019-05-13T01:58:16.231Z,2.82
2019-05-13T01:59:16.151Z,2.73
2019-05-13T02:00:16.140Z,2.67
2019-05-13T02:01:16.132Z,2.71
2019-05-13T02:02:16.127Z,2.71
2019-05-13T02:03:16.107Z,2.74
2019-05-13T02:04:16.164Z,2.73
2019-05-13T02:05:16.082Z,2.63
2019-05-13T02:06:16.072Z,2.58
2019-05-13T02:07:16.061Z,2.66
2019-05-13T02:08:16.059Z,2.66
2019-05-13T02:09:16.038Z,2.63
2019-05-13T02:10:16.096Z,2.61
2019-05-13T02:11:16.018Z,2.56
2019-05-13T02:12:16.006Z,2.58
2019-05-13T02:13:15.994Z,2.58
2019-05-13T02:14:15.982Z,2.48
2019-05-13T02:15:15.971Z,2.45
2019-05-13T02:16:16.025Z,2.44
2019-05-13T02:17:15.950Z,2.37
2019-05-13T02:18:15.936Z,2.35
2019-05-13T02:19:15.926Z,2.20
2019-05-13T02:20:15.914Z,2.20
2019-05-13T02:21:15.904Z,2.26
2019-05-13T02:22:15.955Z,2.20
2019-05-13T02:23:15.881Z,2.34
2019-05-13T02:24:15.872Z,2.23
2019-05-13T02:25:15.911Z,2.34
2019-05-13T02:26:15.849Z,2.35
2019-05-13T02:27:15.840Z,2.33
2019-05-13T02:28:15.902Z,2.31
2019-05-13T02:29:15.813Z,2.31
2019-05-13T02:30:16.583Z,2.27
2019-05-13T02:31:25.023Z,2.22
2019-05-13T02:32:16.788Z,2.20
2019-05-13T02:33:15.771Z,2.23
2019-05-13T02:34:15.821Z,2.20
2019-05-13T02:35:15.748Z,2.26
2019-05-13T02:36:15.735Z,2.27
2019-05-13T02:37:15.725Z,2.33
2019-05-13T02:38:23.858Z,2.33
2019-05-13T02:39:16.763Z,2.34
2019-05-13T02:40:15.695Z,2.33
2019-05-13T02:41:15.680Z,2.34
2019-05-13T02:42:15.670Z,2.22
2019-05-13T02:43:15.658Z,2.26
2019-05-13T02:44:15.646Z,2.22
2019-05-13T02:45:15.704Z,2.23
2019-05-13T02:46:15.624Z,2.22
2019-05-13T02:47:15.616Z,2.17
2019-05-13T02:48:15.605Z,2.16
2019-05-13T02:49:15.595Z,2.20
2019-05-13T02:50:15.583Z,2.22
2019-05-13T02:51:15.639Z,2.15
2019-05-13T02:52:15.558Z,2.19
2019-05-13T02:53:15.546Z,2.12
2019-05-13T02:54:15.537Z,2.08
2019-05-13T02:55:15.529Z,1.97
2019-05-13T02:56:15.516Z,2.08
2019-05-13T02:57:15.569Z,1.89
2019-05-13T02:58:15.491Z,2.04
2019-05-13T02:59:15.480Z,2.01
2019-05-13T03:00:15.470Z,1.97
2019-05-13T03:01:15.461Z,1.91
2019-05-13T03:02:15.449Z,1.90
2019-05-13T03:03:15.505Z,1.80
2019-05-13T03:04:15.430Z,1.76
2019-05-13T03:05:15.417Z,1.83
2019-05-13T03:06:15.409Z,1.75
2019-05-13T03:07:15.390Z,1.71
2019-05-13T03:08:34.179Z,1.68
2019-05-13T03:09:16.437Z,1.65
2019-05-13T03:10:15.364Z,1.54
2019-05-13T03:11:15.344Z,1.62
2019-05-13T03:12:15.361Z,1.57
2019-05-13T03:13:15.324Z,1.43
2019-05-13T03:14:15.308Z,1.37
2019-05-13T03:15:15.364Z,1.42
2019-05-13T03:16:15.287Z,1.47
2019-05-13T03:17:15.274Z,1.57
2019-05-13T03:18:15.268Z,1.54
2019-05-13T03:19:15.255Z,1.51
2019-05-13T03:20:16.706Z,1.39
2019-05-13T03:21:15.303Z,1.42
2019-05-13T03:22:15.217Z,1.40
2019-05-13T03:23:15.210Z,1.36
2019-05-13T03:24:15.198Z,1.43
2019-05-13T03:25:15.184Z,1.40
2019-05-13T03:26:15.172Z,1.42
2019-05-13T03:27:19.642Z,1.36
2019-05-13T03:28:16.154Z,1.37
2019-05-13T03:29:15.137Z,1.40
2019-05-13T03:30:16.943Z,1.34
2019-05-13T03:31:17.381Z,1.34
2019-05-13T03:32:16.746Z,1.33
2019-05-13T03:33:19.486Z,1.32
2019-05-13T03:34:16.439Z,1.32
2019-05-13T03:35:16.876Z,1.25
2019-05-13T03:36:17.011Z,1.32
2019-05-13T03:37:16.272Z,1.24
2019-05-13T03:38:15.038Z,1.28
2019-05-13T03:39:16.631Z,1.36
2019-05-13T03:40:15.018Z,1.21
2019-05-13T03:41:15.004Z,1.26
2019-05-13T03:42:14.992Z,1.34
2019-05-13T03:43:14.981Z,1.36
2019-05-13T03:44:14.968Z,1.29
2019-05-13T03:45:15.027Z,1.40
2019-05-13T03:46:14.948Z,1.32
2019-05-13T03:47:14.932Z,1.36
2019-05-13T03:48:14.924Z,1.36
2019-05-13T03:49:14.913Z,1.36
2019-05-13T03:50:14.902Z,1.24
2019-05-13T03:51:14.960Z,1.33
2019-05-13T03:52:14.876Z,1.25
2019-05-13T03:53:14.865Z,1.28
2019-05-13T03:54:14.856Z,1.33
2019-05-13T03:55:14.846Z,1.24
2019-05-13T03:56:14.830Z,1.19
2019-05-13T03:57:14.889Z,1.16
2019-05-13T03:58:14.811Z,1.18
2019-05-13T03:59:14.795Z,1.19
2019-05-13T04:00:14.794Z,1.29
2019-05-13T04:01:14.785Z,1.34
2019-05-13T04:02:14.769Z,1.39
2019-05-13T04:03:14.825Z,1.34
2019-05-13T04:04:14.743Z,1.39
2019-05-13T04:05:14.727Z,1.42
2019-05-13T04:06:14.719Z,1.42
2019-05-13T04:07:14.706Z,1.52
2019-05-13T04:08:14.696Z,1.57
2019-05-13T04:09:25.507Z,1.52
2019-05-13T04:10:15.671Z,1.69
2019-05-13T04:11:14.661Z,1.79
2019-05-13T04:12:14.648Z,1.83
2019-05-13T04:13:14.637Z,1.91
2019-05-13T04:14:14.626Z,1.91
2019-05-13T04:15:14.687Z,1.94
2019-05-13T04:16:14.613Z,1.89
2019-05-13T04:17:14.595Z,1.89
2019-05-13T04:18:14.580Z,1.90
2019-05-13T04:19:14.570Z,1.93
2019-05-13T04:20:14.562Z,1.97
2019-05-13T04:21:14.612Z,1.87
2019-05-13T04:22:14.535Z,1.98
2019-05-13T04:23:14.552Z,2.02
2019-05-13T04:24:14.511Z,1.94
2019-05-13T04:25:14.500Z,2.04
2019-05-13T04:26:15.353Z,1.99
2019-05-13T04:27:14.545Z,2.13
2019-05-13T04:28:14.465Z,2.26
2019-05-13T04:29:14.463Z,2.16
2019-05-13T04:30:14.442Z,2.22
2019-05-13T04:31:14.820Z,2.33
2019-05-13T04:32:14.420Z,2.38
2019-05-13T04:33:14.487Z,2.44
2019-05-13T04:34:14.413Z,2.44
2019-05-13T04:35:14.388Z,2.53
2019-05-13T04:36:14.374Z,2.53
2019-05-13T04:37:14.363Z,2.55
2019-05-13T04:38:14.354Z,2.56
2019-05-13T04:39:14.416Z,2.51
2019-05-13T04:40:14.329Z,2.69
2019-05-13T04:41:14.327Z,2.70
2019-05-13T04:42:14.318Z,2.70
2019-05-13T04:43:14.300Z,2.67
2019-05-13T04:44:14.288Z,2.81
2019-05-13T04:45:14.366Z,2.84
2019-05-13T04:46:14.792Z,2.95
2019-05-13T04:47:14.254Z,2.91
2019-05-13T04:48:14.242Z,2.87
2019-05-13T04:49:14.239Z,2.98
2019-05-13T04:50:14.239Z,2.97
2019-05-13T04:51:14.429Z,3.03
2019-05-13T04:52:14.198Z,3.02
2019-05-13T04:53:14.184Z,3.07
2019-05-13T04:54:14.177Z,3.18
2019-05-13T04:55:14.161Z,3.27
2019-05-13T04:56:14.502Z,3.24
2019-05-13T04:57:14.208Z,3.31
2019-05-13T04:58:14.128Z,3.34
2019-05-13T04:59:14.137Z,3.42
2019-05-13T05:00:14.108Z,3.44
2019-05-13T05:01:14.434Z,3.46
2019-05-13T05:02:14.085Z,3.57
2019-05-13T05:03:22.974Z,3.64
2019-05-13T05:04:24.079Z,3.72
2019-05-13T05:05:15.890Z,3.62
2019-05-13T05:06:14.042Z,3.65
2019-05-13T05:07:14.043Z,3.67
2019-05-13T05:08:14.018Z,3.68
2019-05-13T05:09:14.092Z,3.62
2019-05-13T05:10:26.450Z,3.82
2019-05-13T05:11:14.997Z,3.86
2019-05-13T05:12:13.981Z,3.94
2019-05-13T05:13:13.967Z,3.98
2019-05-13T05:14:13.950Z,4.08
2019-05-13T05:15:14.015Z,4.10
2019-05-13T05:16:13.951Z,4.18
2019-05-13T05:17:13.914Z,4.16
2019-05-13T05:18:13.903Z,4.28
2019-05-13T05:19:13.894Z,4.32
2019-05-13T05:20:13.881Z,4.36
2019-05-13T05:21:13.937Z,4.47
2019-05-13T05:22:13.856Z,4.44
2019-05-13T05:23:13.844Z,4.40
2019-05-13T05:24:13.834Z,4.58
2019-05-13T05:25:13.825Z,4.72
2019-05-13T05:26:15.306Z,4.76
2019-05-13T05:27:13.867Z,4.70
2019-05-13T05:28:13.788Z,4.80
2019-05-13T05:29:13.777Z,4.83
2019-05-13T05:30:13.765Z,4.91
2019-05-13T05:31:13.756Z,5.02
2019-05-13T05:32:13.752Z,5.17
2019-05-13T05:33:13.800Z,5.23
2019-05-13T05:34:13.720Z,5.28
2019-05-13T05:35:13.713Z,5.43
2019-05-13T05:36:13.697Z,5.71
2019-05-13T05:37:13.689Z,5.74
2019-05-13T05:38:13.680Z,5.88
2019-05-13T05:39:13.732Z,6.10
2019-05-13T05:40:27.112Z,6.36
2019-05-13T05:41:14.644Z,6.62
2019-05-13T05:42:13.629Z,6.87
2019-05-13T05:43:13.618Z,7.29
2019-05-13T05:44:13.620Z,7.59
2019-05-13T05:45:13.667Z,7.89
2019-05-13T05:46:13.584Z,8.30
2019-05-13T05:47:13.574Z,8.57
2019-05-13T05:48:13.561Z,8.96
2019-05-13T05:49:13.550Z,9.23
2019-05-13T05:50:13.538Z,9.48
2019-05-13T05:51:13.598Z,9.49
2019-05-13T05:52:13.515Z,9.81
2019-05-13T05:53:13.505Z,9.96
2019-05-13T05:54:14.737Z,10.00
2019-05-13T05:55:13.484Z,10.18
2019-05-13T05:56:13.476Z,10.37
2019-05-13T05:57:13.558Z,10.17
2019-05-13T05:58:13.448Z,10.21
2019-05-13T05:59:13.439Z,10.17
2019-05-13T06:00:13.427Z,10.34
2019-05-13T06:01:13.411Z,10.36
2019-05-13T06:02:13.399Z,10.42
2019-05-13T06:03:14.088Z,10.34
2019-05-13T06:04:13.379Z,10.19
2019-05-13T06:05:13.366Z,10.24
2019-05-13T06:06:13.357Z,10.53
2019-05-13T06:07:13.344Z,10.88
2019-05-13T06:08:13.331Z,10.76
2019-05-13T06:09:13.389Z,10.33
2019-05-13T06:10:13.311Z,10.33
2019-05-13T06:11:13.299Z,10.52
2019-05-13T06:12:13.290Z,10.59
2019-05-13T06:13:13.274Z,10.40
2019-05-13T06:14:13.266Z,10.65
2019-05-13T06:15:13.332Z,10.77
2019-05-13T06:16:13.241Z,11.01
2019-05-13T06:17:13.236Z,11.53
2019-05-13T06:18:13.219Z,11.87
2019-05-13T06:19:13.205Z,11.89
2019-05-13T06:20:13.543Z,11.74
2019-05-13T06:21:13.249Z,11.54
2019-05-13T06:22:13.170Z,11.20
2019-05-13T06:23:13.159Z,11.11
2019-05-13T06:24:13.148Z,10.99
2019-05-13T06:25:14.485Z,11.19
2019-05-13T06:26:13.124Z,11.17
2019-05-13T06:27:13.192Z,11.10
2019-05-13T06:28:13.101Z,10.98
2019-05-13T06:29:13.093Z,11.20
2019-05-13T06:30:13.080Z,11.24
2019-05-13T06:31:13.067Z,10.77
2019-05-13T06:32:21.555Z,10.58
2019-05-13T06:33:14.116Z,10.68
2019-05-13T06:34:13.033Z,10.77
2019-05-13T06:35:13.033Z,11.11
2019-05-13T06:36:13.017Z,11.54
2019-05-13T06:37:12.998Z,11.67
2019-05-13T06:38:12.994Z,12.13
2019-05-13T06:39:13.043Z,12.31
2019-05-13T06:40:12.966Z,12.30
2019-05-13T06:41:14.739Z,12.41
2019-05-13T06:42:12.946Z,12.44
2019-05-13T06:43:12.930Z,12.64
2019-05-13T06:44:12.925Z,12.63
2019-05-13T06:45:12.980Z,12.79
2019-05-13T06:46:12.896Z,12.87
2019-05-13T06:47:12.885Z,13.02
2019-05-13T06:48:12.882Z,13.29
2019-05-13T06:49:12.862Z,13.15
2019-05-13T06:50:12.853Z,12.81
2019-05-13T06:51:12.911Z,12.99
2019-05-13T06:52:12.828Z,12.95
2019-05-13T06:53:12.934Z,12.96
2019-05-13T06:54:12.804Z,13.27
2019-05-13T06:55:12.797Z,13.46
2019-05-13T06:56:12.780Z,13.59
2019-05-13T06:57:13.594Z,13.69
2019-05-13T06:58:12.757Z,13.54
2019-05-13T06:59:12.752Z,13.51
2019-05-13T07:00:12.740Z,13.46
2019-05-13T07:01:12.724Z,13.38
2019-05-13T07:02:12.715Z,13.58
2019-05-13T07:03:13.044Z,13.80
2019-05-13T07:04:12.689Z,13.79
2019-05-13T07:05:12.679Z,13.98
2019-05-13T07:06:12.672Z,13.70
2019-05-13T07:07:16.892Z,14.06
2019-05-13T07:08:12.647Z,14.27
2019-05-13T07:09:12.711Z,14.29
2019-05-13T07:10:12.896Z,14.16
2019-05-13T07:11:20.408Z,14.49
2019-05-13T07:12:13.604Z,14.71
2019-05-13T07:13:12.588Z,14.94
2019-05-13T07:14:12.939Z,14.98
2019-05-13T07:15:12.634Z,14.98
2019-05-13T07:16:12.553Z,14.67
2019-05-13T07:17:12.587Z,14.88
2019-05-13T07:18:15.941Z,15.05
2019-05-13T07:19:12.521Z,15.45
2019-05-13T07:20:12.517Z,15.36
2019-05-13T07:21:12.710Z,15.52
2019-05-13T07:22:12.486Z,15.57
2019-05-13T07:23:12.595Z,15.63
2019-05-13T07:24:12.933Z,15.21
2019-05-13T07:25:12.452Z,15.26
2019-05-13T07:26:12.442Z,15.45
2019-05-13T07:27:12.506Z,15.59
2019-05-13T07:28:12.880Z,15.66
2019-05-13T07:29:13.145Z,15.86
2019-05-13T07:30:12.399Z,16.03
2019-05-13T07:31:12.388Z,16.12
2019-05-13T07:32:12.371Z,15.89
2019-05-13T07:33:12.900Z,16.14
2019-05-13T07:34:12.355Z,16.35
2019-05-13T07:35:14.408Z,16.31
2019-05-13T07:36:12.876Z,16.44
2019-05-13T07:37:12.316Z,16.67
2019-05-13T07:38:12.307Z,16.68
2019-05-13T07:39:12.367Z,16.81
2019-05-13T07:40:12.282Z,16.86
2019-05-13T07:41:12.275Z,16.85
2019-05-13T07:42:12.571Z,16.71
2019-05-13T07:43:12.596Z,16.89
2019-05-13T07:44:12.234Z,16.71
2019-05-13T07:45:12.447Z,16.80
2019-05-13T07:46:12.736Z,17.03
2019-05-13T07:47:15.265Z,17.03
2019-05-13T07:48:20.910Z,17.15
2019-05-13T07:49:13.177Z,17.36
2019-05-13T07:50:12.804Z,17.38
2019-05-13T07:51:12.225Z,17.44
2019-05-13T07:52:12.144Z,17.38
2019-05-13T07:53:18.164Z,17.40
2019-05-13T07:54:13.119Z,17.22
2019-05-13T07:55:12.191Z,17.30
2019-05-13T07:56:12.620Z,16.93
2019-05-13T07:57:12.414Z,17.23
2019-05-13T07:58:12.075Z,17.32
2019-05-13T07:59:12.480Z,17.53
2019-05-13T08:00:12.612Z,17.69
2019-05-13T08:01:12.460Z,17.06
2019-05-13T08:02:12.484Z,16.70
2019-05-13T08:03:12.555Z,16.89
2019-05-13T08:04:22.050Z,16.70
2019-05-13T08:05:12.994Z,16.67
2019-05-13T08:06:11.980Z,16.96
2019-05-13T08:07:12.291Z,16.85
2019-05-13T08:08:12.125Z,17.48
2019-05-13T08:09:12.926Z,17.82
2019-05-13T08:10:11.940Z,18.10
2019-05-13T08:11:12.849Z,18.25
2019-05-13T08:12:14.294Z,18.29
2019-05-13T08:13:12.225Z,18.28
2019-05-13T08:14:12.441Z,18.17
2019-05-13T08:15:12.163Z,18.29
2019-05-13T08:16:12.332Z,18.17
2019-05-13T08:17:11.872Z,18.19
2019-05-13T08:18:12.329Z,18.28
2019-05-13T08:19:12.467Z,18.27
2019-05-13T08:20:12.668Z,18.28
2019-05-13T08:21:12.414Z,18.37
2019-05-13T08:22:12.238Z,18.76
2019-05-13T08:23:12.251Z,18.92
2019-05-13T08:24:12.068Z,18.73
2019-05-13T08:25:12.589Z,18.99
2019-05-13T08:26:12.464Z,18.99
2019-05-13T08:27:11.934Z,19.40
2019-05-13T08:28:12.432Z,19.48
2019-05-13T08:29:11.718Z,19.14
2019-05-13T08:30:11.985Z,19.23
2019-05-13T08:31:12.078Z,19.29
2019-05-13T08:32:11.686Z,18.94
2019-05-13T08:33:12.497Z,19.14
2019-05-13T08:34:12.030Z,19.24
2019-05-13T08:35:12.549Z,19.33
2019-05-13T08:36:12.261Z,18.80
2019-05-13T08:37:11.700Z,19.08
2019-05-13T08:38:12.182Z,19.20
2019-05-13T08:39:12.697Z,18.83
2019-05-13T08:40:12.198Z,18.33
2019-05-13T08:41:18.840Z,18.39
2019-05-13T08:42:16.775Z,18.72
2019-05-13T08:43:12.564Z,18.94
2019-05-13T08:44:12.347Z,18.86
2019-05-13T08:45:12.208Z,18.62
2019-05-13T08:46:12.503Z,18.58
2019-05-13T08:47:12.085Z,18.52
2019-05-13T08:48:12.802Z,19.02
2019-05-13T08:49:12.006Z,19.15
2019-05-13T08:50:12.122Z,18.94
2019-05-13T08:51:11.822Z,19.01
2019-05-13T08:52:12.242Z,19.69
2019-05-13T08:53:12.325Z,19.79
2019-05-13T08:54:11.676Z,19.98
2019-05-13T08:55:15.881Z,20.08
2019-05-13T08:56:12.180Z,20.46
2019-05-13T08:57:11.940Z,20.34
2019-05-13T08:58:12.501Z,20.46
2019-05-13T08:59:11.671Z,20.58
2019-05-13T09:00:13.634Z,20.69
2019-05-13T09:01:12.384Z,20.51
2019-05-13T09:02:11.674Z,20.77
2019-05-13T09:03:12.142Z,20.53
2019-05-13T09:04:12.044Z,20.65
2019-05-13T09:05:12.054Z,20.49
2019-05-13T09:06:11.725Z,20.30
2019-05-13T09:07:12.152Z,20.39
2019-05-13T09:08:11.581Z,20.15
2019-05-13T09:09:11.679Z,20.08
2019-05-13T09:10:12.471Z,20.23
2019-05-13T09:11:12.034Z,20.08
2019-05-13T09:12:11.712Z,19.88
2019-05-13T09:13:12.083Z,19.75
2019-05-13T09:14:11.414Z,19.88
2019-05-13T09:15:12.028Z,19.25
2019-05-13T09:16:13.318Z,19.43
2019-05-13T09:17:12.051Z,19.83
2019-05-13T09:18:11.490Z,20.27
2019-05-13T09:19:15.949Z,20.66
2019-05-13T09:20:12.209Z,21.20
2019-05-13T09:21:11.756Z,21.35
2019-05-13T09:22:12.359Z,21.63
2019-05-13T09:23:11.519Z,21.32
2019-05-13T09:24:23.981Z,20.31
2019-05-13T09:25:12.599Z,20.24
2019-05-13T09:26:11.961Z,20.46
2019-05-13T09:27:12.097Z,20.34
2019-05-13T09:28:12.502Z,20.66
2019-05-13T09:29:11.858Z,20.84
2019-05-13T09:30:11.784Z,21.17
2019-05-13T09:31:12.566Z,21.35
2019-05-13T09:32:12.136Z,21.95
2019-05-13T09:33:11.556Z,21.90
2019-05-13T09:34:12.183Z,21.85
2019-05-13T09:35:11.955Z,21.67
2019-05-13T09:36:12.573Z,20.98
2019-05-13T09:37:11.870Z,20.66
2019-05-13T09:38:12.662Z,20.30
2019-05-13T09:39:12.704Z,20.51
2019-05-13T09:40:11.561Z,21.06
2019-05-13T09:41:12.332Z,20.06
2019-05-13T09:42:12.678Z,20.12
2019-05-13T09:43:11.607Z,20.80
2019-05-13T09:44:12.337Z,21.39
2019-05-13T09:45:12.263Z,21.41
2019-05-13T09:46:11.877Z,21.09
2019-05-13T09:47:12.418Z,21.26
2019-05-13T09:48:12.924Z,21.78
2019-05-13T09:49:19.203Z,21.67
2019-05-13T09:50:27.621Z,22.34
2019-05-13T09:51:12.464Z,22.50
2019-05-13T09:52:11.945Z,22.68
2019-05-13T09:53:11.492Z,22.67
2019-05-13T09:54:11.725Z,22.47
2019-05-13T09:55:25.562Z,21.71
2019-05-13T09:56:12.023Z,21.53
2019-05-13T09:57:12.142Z,21.39
2019-05-13T09:58:11.836Z,21.97
2019-05-13T09:59:11.722Z,21.61
2019-05-13T10:00:12.185Z,21.21
2019-05-13T10:01:12.400Z,21.64
2019-05-13T10:02:12.516Z,22.07
2019-05-13T10:03:13.525Z,22.23
2019-05-13T10:04:11.920Z,21.72
2019-05-13T10:05:11.558Z,21.42
2019-05-13T10:06:12.663Z,21.38
2019-05-13T10:07:12.389Z,21.05
2019-05-13T10:08:12.565Z,21.69
2019-05-13T10:09:12.622Z,22.46
2019-05-13T10:10:11.981Z,22.35
2019-05-13T10:11:12.330Z,22.27
2019-05-13T10:12:12.180Z,22.39
2019-05-13T10:13:13.064Z,22.07
2019-05-13T10:14:11.912Z,21.34
2019-05-13T10:15:12.682Z,20.91
2019-05-13T10:16:12.462Z,20.34
2019-05-13T10:17:12.884Z,20.43
2019-05-13T10:18:12.525Z,20.24
2019-05-13T10:19:12.692Z,20.54
2019-05-13T10:20:12.082Z,20.15
2019-05-13T10:21:10.458Z,20.51
2019-05-13T10:22:12.003Z,21.21
2019-05-13T10:23:12.588Z,21.32
2019-05-13T10:24:12.585Z,21.78
2019-05-13T10:25:12.056Z,22.37
2019-05-13T10:26:13.639Z,22.53
2019-05-13T10:27:12.164Z,21.92
2019-05-13T10:28:12.683Z,21.78
2019-05-13T10:29:11.928Z,21.39
2019-05-13T10:30:11.461Z,20.68
2019-05-13T10:31:11.965Z,19.15
2019-05-13T10:32:10.405Z,19.31
2019-05-13T10:33:12.369Z,20.13
2019-05-13T10:34:10.317Z,20.74
2019-05-13T10:35:10.304Z,21.26
2019-05-13T10:36:12.162Z,21.14
2019-05-13T10:37:11.346Z,20.79
2019-05-13T10:38:13.148Z,20.71
2019-05-13T10:39:11.887Z,21.21
2019-05-13T10:40:11.582Z,20.51
2019-05-13T10:41:11.936Z,20.81
2019-05-13T10:42:12.136Z,21.45
2019-05-13T10:43:28.121Z,21.94
2019-05-13T10:44:12.145Z,22.06
2019-05-13T10:45:12.935Z,22.13
2019-05-13T10:46:12.777Z,22.12
2019-05-13T10:47:12.036Z,22.92
2019-05-13T10:48:12.811Z,23.76
2019-05-13T10:49:12.210Z,23.24
2019-05-13T10:50:10.213Z,22.57
2019-05-13T10:51:12.889Z,22.53
2019-05-13T10:52:12.239Z,22.44
2019-05-13T10:53:12.272Z,22.46
2019-05-13T10:54:10.098Z,21.92
2019-05-13T10:55:12.880Z,22.09
2019-05-13T10:56:10.143Z,22.09
2019-05-13T10:57:13.362Z,21.45
2019-05-13T10:58:12.270Z,21.75
2019-05-13T10:59:12.567Z,22.20
2019-05-13T11:00:12.224Z,22.50
2019-05-13T11:01:11.652Z,22.94
2019-05-13T11:02:13.089Z,23.49
2019-05-13T11:03:11.774Z,23.58
2019-05-13T11:04:13.313Z,22.49
2019-05-13T11:05:12.271Z,21.67
2019-05-13T11:06:11.691Z,22.28
2019-05-13T11:07:12.083Z,22.78
2019-05-13T11:08:10.015Z,23.61
2019-05-13T11:09:12.768Z,24.01
2019-05-13T11:10:10.538Z,23.58
2019-05-13T11:11:10.204Z,23.45
2019-05-13T11:12:12.172Z,23.80
2019-05-13T11:13:10.772Z,23.23
2019-05-13T11:14:12.864Z,22.65
2019-05-13T11:15:10.868Z,23.15
2019-05-13T11:16:12.189Z,23.07
2019-05-13T11:17:12.307Z,22.97
2019-05-13T11:18:14.188Z,23.27
2019-05-13T11:19:11.922Z,23.60
2019-05-13T11:20:12.244Z,23.71
2019-05-13T11:21:12.769Z,23.87
2019-05-13T11:22:12.317Z,24.38
2019-05-13T11:23:12.465Z,24.26
2019-05-13T11:24:12.726Z,24.37
2019-05-13T11:25:11.804Z,24.02
2019-05-13T11:26:10.093Z,23.72
2019-05-13T11:27:11.993Z,23.58
2019-05-13T11:28:11.620Z,24.22
2019-05-13T11:29:12.088Z,23.43
2019-05-13T11:30:09.726Z,23.49
2019-05-13T11:31:09.769Z,23.52
2019-05-13T11:32:09.687Z,23.70
2019-05-13T11:33:10.301Z,23.87
2019-05-13T11:34:09.670Z,24.59
2019-05-13T11:35:12.788Z,24.69
2019-05-13T11:36:12.407Z,24.22
2019-05-13T11:37:12.401Z,24.82
2019-05-13T11:38:12.055Z,24.56
2019-05-13T11:39:12.692Z,22.65
2019-05-13T11:40:12.037Z,22.25
2019-05-13T11:41:11.839Z,22.32
2019-05-13T11:42:13.201Z,22.67
2019-05-13T11:43:12.134Z,23.17
2019-05-13T11:44:16.122Z,22.80
2019-05-13T11:45:11.725Z,22.06
2019-05-13T11:46:09.539Z,22.12
2019-05-13T11:47:12.195Z,22.80
2019-05-13T11:48:09.921Z,23.12
2019-05-13T11:49:11.783Z,22.86
2019-05-13T11:50:11.556Z,22.09
2019-05-13T11:51:12.808Z,20.86
2019-05-13T11:52:11.664Z,20.72
2019-05-13T11:53:28.059Z,20.76
2019-05-13T11:54:14.036Z,20.65
2019-05-13T11:55:12.772Z,21.48
2019-05-13T11:56:11.546Z,22.32
2019-05-13T11:57:11.694Z,21.71
2019-05-13T11:58:13.474Z,21.88
2019-05-13T11:59:09.428Z,21.64
2019-05-13T12:00:12.891Z,21.98
2019-05-13T12:01:09.378Z,22.84
2019-05-13T12:02:13.241Z,23.45
2019-05-13T12:03:09.357Z,23.23
2019-05-13T12:04:09.346Z,23.75
2019-05-13T12:05:09.342Z,23.46
2019-05-13T12:06:09.397Z,23.87
2019-05-13T12:07:09.316Z,23.42
2019-05-13T12:08:12.523Z,23.14
2019-05-13T12:09:09.291Z,23.14
2019-05-13T12:10:12.275Z,23.58
2019-05-13T12:11:09.272Z,24.49
2019-05-13T12:12:12.288Z,23.97
2019-05-13T12:13:11.872Z,23.95
2019-05-13T12:14:36.747Z,24.24
2019-05-13T12:15:33.489Z,24.41
2019-05-13T12:16:12.847Z,24.61
2019-05-13T12:17:09.205Z,24.63
2019-05-13T12:18:11.649Z,24.49
2019-05-13T12:19:11.858Z,25.05
2019-05-13T12:20:12.027Z,25.52
2019-05-13T12:21:09.163Z,26.25
2019-05-13T12:22:09.199Z,25.69
2019-05-13T12:23:09.146Z,25.07
2019-05-13T12:24:10.998Z,24.44
2019-05-13T12:25:09.120Z,24.47
2019-05-13T12:26:09.113Z,24.10
2019-05-13T12:27:09.265Z,23.70
2019-05-13T12:28:11.339Z,23.23
2019-05-13T12:29:17.633Z,23.46
2019-05-13T12:30:12.410Z,23.82
2019-05-13T12:31:09.068Z,24.85
2019-05-13T12:32:12.580Z,23.80
2019-05-13T12:33:12.965Z,22.67
2019-05-13T12:34:12.757Z,23.11
2019-05-13T12:35:09.743Z,22.77
2019-05-13T12:36:15.368Z,22.32
2019-05-13T12:37:12.237Z,22.14
2019-05-13T12:38:12.960Z,21.61
2019-05-13T12:39:13.971Z,21.85
2019-05-13T12:40:09.958Z,21.82
2019-05-13T12:41:12.573Z,21.01
2019-05-13T12:42:09.009Z,21.35
2019-05-13T12:43:08.936Z,21.54
2019-05-13T12:44:08.911Z,21.21
2019-05-13T12:45:10.976Z,21.74
2019-05-13T12:46:12.461Z,22.23
2019-05-13T12:47:11.394Z,23.01
2019-05-13T12:48:08.936Z,23.19
2019-05-13T12:49:08.859Z,23.60
2019-05-13T12:50:08.847Z,23.42
2019-05-13T12:51:08.835Z,23.55
2019-05-13T12:52:12.415Z,24.00
2019-05-13T12:53:12.268Z,24.32
2019-05-13T12:54:14.075Z,24.80
2019-05-13T12:55:08.792Z,25.05
2019-05-13T12:56:08.780Z,25.77
2019-05-13T12:57:13.191Z,25.97
2019-05-13T12:58:12.044Z,26.05
2019-05-13T12:59:12.866Z,25.80
2019-05-13T13:00:08.908Z,25.28
2019-05-13T13:01:08.729Z,24.61
2019-05-13T13:02:13.324Z,24.53
2019-05-13T13:03:08.707Z,24.42
2019-05-13T13:04:08.696Z,23.71